Time;durP1;ratioP1;P1;durP2;ratioP2;P2;SDS_P1;SDS_P2;PMS_P1;PMS_P2;Temp;Humidity;BMP_temperature;BMP_pressure;BME280_temperature;BME280_humidity;BME280_pressure;Samples;Min_cycle;Max_cycle;Signal;HPM_P1;HPM_P2
2021/01/05 00:00:57;;;;;;;;;;;;;;;;;;5038244;28;20028;-88
2021/01/05 00:03:26;;;;;;;;;;;;;;;;;;5031382;28;20361;-88
2021/01/05 00:05:53;;;;;;;;;;;;;;;;;;5046967;28;19929;-87
2021/01/05 00:08:21;;;;;;;;;;;;;;;;;;5051181;28;20377;-87
2021/01/05 00:10:48;;;;;;;;;;;;;;;;;;5021546;28;19931;-88
2021/01/05 00:13:17;;;;;;;;;;;;;;;;;;5045806;28;19971;-87
2021/01/05 00:15:45;;;;;;;;;;;;;;;;;;5058050;28;19940;-88
2021/01/05 00:18:13;;;;;;;;;;;;;;;;;;5051258;28;19951;-87
2021/01/05 00:20:40;;;;;;;;;;;;;;;;;;5037499;28;19925;-88
2021/01/05 00:23:13;;;;;;;;;;;;;;;;;;5043134;28;20028;-88
2021/01/05 00:25:40;;;;;;;;;;;;;;;;;;5050458;28;19928;-88
2021/01/05 00:28:07;;;;;;;;;;;;;;;;;;5044270;28;19971;-88
2021/01/05 00:30:35;;;;;;;;;;;;;;;;;;5037393;28;19929;-89
2021/01/05 00:33:02;;;;;;;;;;;;;;;;;;5037996;28;19928;-89
2021/01/05 00:35:32;;;;;;;;;;;;;;;;;;5041428;28;19929;-88
2021/01/05 00:37:59;;;;;;;;;;;;;;;;;;5037017;28;19983;-88
2021/01/05 00:40:26;;;;;;;;;;;;;;;;;;5049171;28;19948;-88
2021/01/05 00:42:54;;;;;;;;;;;;;;;;;;5045390;28;19933;-88
2021/01/05 00:45:21;;;;;;;;;;;;;;;;;;5045424;28;19971;-86
2021/01/05 00:47:48;;;;;;;;;;;;;;;;;;5058049;28;19925;-88
2021/01/05 00:50:16;;;;;;;;;;;;;;;;;;5049706;28;19972;-89
2021/01/05 00:52:44;;;;;;;;;;;;;;;;;;5038388;28;19953;-88
2021/01/05 00:55:14;;;;;;;;;;;;;;;;;;5040403;28;19929;-89
2021/01/05 00:57:41;;;;;;;;;;;;;;;;;;5041268;28;19929;-88
2021/01/05 01:00:08;;;;;;;;;;;;;;;;;;5040450;28;19929;-88
2021/01/05 01:02:36;;;;;;;;;;;;;;;;;;5037737;28;20288;-88
2021/01/05 01:05:03;;;;;;;;;;;;;;;;;;5040133;28;19976;-87
2021/01/05 01:07:30;;;;;;;;;;;;;;;;;;5045816;28;19948;-87
2021/01/05 01:09:58;;;;;;;;;;;;;;;;;;5049451;28;19952;-88
2021/01/05 01:12:28;;;;;;;;;;;;;;;;;;5052928;28;20388;-87
2021/01/05 01:14:56;;;;;;;;;;;;;;;;;;5060241;28;19987;-87
2021/01/05 01:17:23;;;;;;;;;;;;;;;;;;5044627;28;19968;-87
2021/01/05 01:19:51;;;;;;;;;;;;;;;;;;5036850;28;20389;-87
2021/01/05 01:22:18;;;;;;;;;;;;;;;;;;5034802;28;20480;-88
2021/01/05 01:24:45;;;;;;;;;;;;;;;;;;5018468;28;19995;-87
2021/01/05 01:27:17;;;;;;;;;;;;;;;;;;5037494;28;19925;-87
2021/01/05 01:29:45;;;;;;;;;;;;;;;;;;5054309;28;19971;-89
2021/01/05 01:32:12;;;;;;;;;;;;;;;;;;5054057;28;20008;-87
2021/01/05 01:34:40;;;;;;;;;;;;;;;;;;5035890;28;20407;-87
2021/01/05 01:37:07;;;;;;;;;;;;;;;;;;5035467;28;19929;-87
2021/01/05 01:39:35;;;;;;;;;;;;;;;;;;5035713;28;19964;-88
2021/01/05 01:42:10;;;;;;;;;;;;;;;;;;5050425;28;19929;-87
2021/01/05 01:44:39;;;;;;;;;;;;;;;;;;5040841;28;19932;-87
2021/01/05 01:47:07;;;;;;;;;;;;;;;;;;5018785;28;20343;-87
2021/01/05 01:49:34;;;;;;;;;;;;;;;;;;5043820;28;19963;-87
2021/01/05 01:52:05;;;;;;;;;;;;;;;;;;5041751;28;19976;-87
2021/01/05 01:54:33;;;;;;;;;;;;;;;;;;5054704;28;19987;-89
2021/01/05 01:57:01;;;;;;;;;;;;;;;;;;5052253;28;20336;-89
2021/01/05 01:59:28;;;;;;;;;;;;;;;;;;5056499;28;19925;-89
2021/01/05 02:01:56;;;;;;;;;;;;;;;;;;5045157;28;19925;-89
2021/01/05 02:04:24;;;;;;;;;;;;;;;;;;5056478;23;19929;-60
2021/01/05 02:06:51;;;;;;;;;;;;;;;;;;5038918;28;19925;-57
2021/01/05 02:09:18;;;;;;;;;;;;;;;;;;5037889;28;19931;-57
2021/01/05 02:11:45;;;;;;;;;;;;;;;;;;5037701;28;19925;-60
2021/01/05 02:14:12;;;;;;;;;;;;;;;;;;5038419;28;19925;-61
2021/01/05 02:16:39;;;;;;;;;;;;;;;;;;5037275;28;20363;-60
2021/01/05 02:19:07;;;;;;;;;;;;;;;;;;5038255;28;19947;-59
2021/01/05 02:21:34;;;;;;;;;;;;;;;;;;5037996;28;20016;-59
2021/01/05 02:24:03;;;;;;;;;;;;;;;;;;5037915;28;19932;-59
2021/01/05 02:26:30;;;;;;;;;;;;;;;;;;5037283;28;20460;-59
2021/01/05 02:28:57;;;;;;;;;;;;;;;;;;5038421;28;19940;-60
2021/01/05 02:31:24;;;;;;;;;;;;;;;;;;5038184;28;19929;-59
2021/01/05 02:33:51;;;;;;;;;;;;;;;;;;5037146;28;19925;-59
2021/01/05 02:36:18;;;;;;;;;;;;;;;;;;5037383;28;19932;-59
2021/01/05 02:38:45;;;;;;;;;;;;;;;;;;5037252;28;19967;-60
2021/01/05 02:41:12;;;;;;;;;;;;;;;;;;5037813;28;19925;-57
2021/01/05 02:43:39;;;;;;;;;;;;;;;;;;5037131;28;19931;-58
2021/01/05 02:46:06;;;;;;;;;;;;;;;;;;5037069;28;19925;-59
2021/01/05 02:48:33;;;;;;;;;;;;;;;;;;5036718;28;19925;-60
2021/01/05 02:51:00;;;;;;;;;;;;;;;;;;5037317;28;20004;-60
2021/01/05 02:53:28;;;;;;;;;;;;;;;;;;5035987;28;20460;-59
2021/01/05 02:55:55;;;;;;;;;;;;;;;;;;5036383;28;19929;-62
2021/01/05 02:58:22;;;;;;;;;;;;;;;;;;5036712;28;19925;-58
2021/01/05 03:00:49;;;;;;;;;;;;;;;;;;5036654;28;19968;-59
2021/01/05 03:03:16;;;;;;;;;;;;;;;;;;5033729;28;19929;-61
2021/01/05 03:05:46;;;;;;;;;;;;;;;;;;5027308;28;19925;-57
2021/01/05 03:08:13;;;;;;;;;;;;;;;;;;5028039;28;19925;-60
2021/01/05 03:10:40;;;;;;;;;;;;;;;;;;5028692;28;19925;-59
2021/01/05 03:13:07;;;;;;;;;;;;;;;;;;5019046;28;19939;-61
2021/01/05 03:15:34;;;;;;;;;;;;;;;;;;5033211;28;19936;-58
2021/01/05 03:18:01;;;;;;;;;;;;;;;;;;5025953;28;20309;-58
2021/01/05 03:20:28;;;;;;;;;;;;;;;;;;5028407;28;19925;-59
2021/01/05 03:22:55;;;;;;;;;;;;;;;;;;5023068;28;19940;-58
2021/01/05 03:25:23;;;;;;;;;;;;;;;;;;5017858;28;20374;-60
2021/01/05 03:27:50;;;;;;;;;;;;;;;;;;5014128;28;19957;-60
2021/01/05 03:30:17;;;;;;;;;;;;;;;;;;5024954;28;20659;-58
2021/01/05 03:32:44;;;;;;;;;;;;;;;;;;5030102;28;20064;-60
2021/01/05 03:35:12;;;;;;;;;;;;;;;;;;5028176;28;20024;-59
2021/01/05 03:37:39;;;;;;;;;;;;;;;;;;5019505;28;19964;-60
2021/01/05 03:40:09;;;;;;;;;;;;;;;;;;5031133;28;20311;-59
2021/01/05 03:42:36;;;;;;;;;;;;;;;;;;5023389;28;19925;-58
2021/01/05 03:45:03;;;;;;;;;;;;;;;;;;5031801;28;19976;-58
2021/01/05 03:47:30;;;;;;;;;;;;;;;;;;5019220;28;20391;-60
2021/01/05 03:49:57;;;;;;;;;;;;;;;;;;5024461;28;19952;-58
2021/01/05 03:52:25;;;;;;;;;;;;;;;;;;5026599;28;19929;-57
2021/01/05 03:54:52;;;;;;;;;;;;;;;;;;5023948;28;19935;-57
2021/01/05 03:57:19;;;;;;;;;;;;;;;;;;5027239;28;20403;-57
2021/01/05 03:59:46;;;;;;;;;;;;;;;;;;5029943;28;19948;-57
2021/01/05 04:02:13;;;;;;;;;;;;;;;;;;5029948;28;19932;-58
2021/01/05 04:04:52;;;;;;;;;;;;;;;;;;1031013;28;10021836;-58
2021/01/05 04:07:19;;;;;;;;;;;;;;;;;;4676352;28;10000657;-60
2021/01/05 04:09:46;;;;;;;;;;;;;;;;;;5020777;28;20520;-59
2021/01/05 04:12:13;;;;;;;;;;;;;;;;;;5021069;28;20406;-58
2021/01/05 04:14:40;;;;;;;;;;;;;;;;;;5030629;28;19948;-58
2021/01/05 04:17:08;;;;;;;;;;;;;;;;;;5030645;28;19925;-58
2021/01/05 04:19:35;;;;;;;;;;;;;;;;;;5027124;28;20448;-60
2021/01/05 04:22:02;;;;;;;;;;;;;;;;;;5014936;28;19932;-59
2021/01/05 04:24:32;;;;;;;;;;;;;;;;;;5030892;28;19925;-60
2021/01/05 04:26:59;;;;;;;;;;;;;;;;;;5014064;28;20037;-59
2021/01/05 04:29:26;;;;;;;;;;;;;;;;;;5029332;28;19929;-60
2021/01/05 04:31:53;;;;;;;;;;;;;;;;;;5028982;28;19929;-61
2021/01/05 04:34:20;;;;;;;;;;;;;;;;;;5029462;28;19929;-59
2021/01/05 04:36:47;;;;;;;;;;;;;;;;;;5029439;28;19929;-59
2021/01/05 04:39:14;;;;;;;;;;;;;;;;;;5019560;28;19936;-61
2021/01/05 04:41:41;;;;;;;;;;;;;;;;;;5030135;28;20434;-60
2021/01/05 04:44:08;;;;;;;;;;;;;;;;;;5030089;28;20288;-59
2021/01/05 04:46:35;;;;;;;;;;;;;;;;;;5015901;28;20024;-58
2021/01/05 04:49:03;;;;;;;;;;;;;;;;;;5018838;28;19926;-60
2021/01/05 04:51:30;;;;;;;;;;;;;;;;;;5016902;28;19932;-59
2021/01/05 04:53:57;;;;;;;;;;;;;;;;;;5011765;28;20388;-59
2021/01/05 04:56:24;;;;;;;;;;;;;;;;;;5028557;28;19979;-59
2021/01/05 04:58:51;;;;;;;;;;;;;;;;;;5027701;28;19925;-61
2021/01/05 05:01:18;;;;;;;;;;;;;;;;;;5019213;28;19972;-60
2021/01/05 05:03:45;;;;;;;;;;;;;;;;;;5011719;28;19939;-61
2021/01/05 05:06:13;;;;;;;;;;;;;;;;;;5029990;28;19944;-59
2021/01/05 05:08:40;;;;;;;;;;;;;;;;;;5023620;28;20300;-61
2021/01/05 05:11:07;;;;;;;;;;;;;;;;;;5025256;28;20056;-62
2021/01/05 05:13:34;;;;;;;;;;;;;;;;;;5020630;28;19935;-61
2021/01/05 05:16:01;;;;;;;;;;;;;;;;;;5030813;28;19931;-61
2021/01/05 05:18:28;;;;;;;;;;;;;;;;;;5030090;28;20397;-59
2021/01/05 05:20:55;;;;;;;;;;;;;;;;;;5029871;28;19936;-60
2021/01/05 05:23:22;;;;;;;;;;;;;;;;;;5027200;28;20040;-60
2021/01/05 05:25:49;;;;;;;;;;;;;;;;;;5028979;28;19955;-59
2021/01/05 05:28:16;;;;;;;;;;;;;;;;;;5027873;28;19929;-60
2021/01/05 05:30:44;;;;;;;;;;;;;;;;;;5016119;28;19929;-61
2021/01/05 05:33:12;;;;;;;;;;;;;;;;;;5017505;28;19932;-62
2021/01/05 05:35:39;;;;;;;;;;;;;;;;;;5020815;28;19943;-60
2021/01/05 05:38:06;;;;;;;;;;;;;;;;;;5030364;28;19925;-62
2021/01/05 05:40:33;;;;;;;;;;;;;;;;;;5027144;28;19926;-59
2021/01/05 05:43:00;;;;;;;;;;;;;;;;;;5027112;28;19925;-57
2021/01/05 05:45:27;;;;;;;;;;;;;;;;;;5026608;28;19951;-59
2021/01/05 05:47:54;;;;;;;;;;;;;;;;;;5025786;28;19926;-58
2021/01/05 05:50:22;;;;;;;;;;;;;;;;;;5023030;28;20432;-59
2021/01/05 05:52:49;;;;;;;;;;;;;;;;;;5028245;28;19949;-61
2021/01/05 05:55:16;;;;;;;;;;;;;;;;;;5022113;28;19926;-58
2021/01/05 05:57:43;;;;;;;;;;;;;;;;;;5015064;28;20008;-60
2021/01/05 06:00:10;;;;;;;;;;;;;;;;;;5024350;28;19979;-58
2021/01/05 06:02:37;;;;;;;;;;;;;;;;;;5029887;28;19929;-58
2021/01/05 06:05:05;;;;;;;;;;;;;;;;;;5029613;28;20317;-59
2021/01/05 06:07:32;;;;;;;;;;;;;;;;;;5026277;28;19925;-58
2021/01/05 06:09:59;;;;;;;;;;;;;;;;;;5018691;28;19932;-57
2021/01/05 06:12:26;;;;;;;;;;;;;;;;;;5028822;28;20016;-59
2021/01/05 06:14:53;;;;;;;;;;;;;;;;;;5016538;28;20401;-58
2021/01/05 06:17:20;;;;;;;;;;;;;;;;;;5019186;28;19925;-58
2021/01/05 06:19:47;;;;;;;;;;;;;;;;;;5018016;28;20486;-57
2021/01/05 06:22:15;;;;;;;;;;;;;;;;;;5017378;28;19930;-61
2021/01/05 06:24:42;;;;;;;;;;;;;;;;;;5021545;28;20035;-59
2021/01/05 06:27:09;;;;;;;;;;;;;;;;;;5030243;28;19932;-61
2021/01/05 06:29:36;;;;;;;;;;;;;;;;;;5023968;28;20274;-59
2021/01/05 06:32:03;;;;;;;;;;;;;;;;;;5011624;28;20293;-61
2021/01/05 06:34:30;;;;;;;;;;;;;;;;;;5025248;28;19925;-57
2021/01/05 06:36:57;;;;;;;;;;;;;;;;;;5011988;28;19925;-58
2021/01/05 06:39:25;;;;;;;;;;;;;;;;;;5022409;28;19933;-59
2021/01/05 06:41:52;;;;;;;;;;;;;;;;;;5019131;28;19929;-60
2021/01/05 06:44:19;;;;;;;;;;;;;;;;;;5030673;28;19928;-60
2021/01/05 06:46:46;;;;;;;;;;;;;;;;;;5012236;28;19930;-61
2021/01/05 06:49:13;;;;;;;;;;;;;;;;;;5028263;28;19967;-59
2021/01/05 06:51:40;;;;;;;;;;;;;;;;;;5023856;28;19941;-61
2021/01/05 06:54:07;;;;;;;;;;;;;;;;;;5019572;28;20393;-60
2021/01/05 06:56:34;;;;;;;;;;;;;;;;;;5020266;28;19929;-60
2021/01/05 06:59:04;;;;;;;;;;;;;;;;;;5025822;28;19929;-61
2021/01/05 07:01:31;;;;;;;;;;;;;;;;;;5031305;28;19936;-59
2021/01/05 07:03:58;;;;;;;;;;;;;;;;;;5030546;28;19931;-61
2021/01/05 07:06:25;;;;;;;;;;;;;;;;;;5015801;28;19937;-60
2021/01/05 07:08:52;;;;;;;;;;;;;;;;;;5019398;28;20041;-61
2021/01/05 07:11:20;;;;;;;;;;;;;;;;;;5029756;28;19929;-60
2021/01/05 07:13:47;;;;;;;;;;;;;;;;;;5024123;28;19929;-58
2021/01/05 07:16:14;;;;;;;;;;;;;;;;;;5029023;28;19929;-61
2021/01/05 07:18:41;;;;;;;;;;;;;;;;;;5029496;28;19936;-58
2021/01/05 07:21:08;;;;;;;;;;;;;;;;;;5029644;28;19925;-58
2021/01/05 07:23:35;;;;;;;;;;;;;;;;;;5030190;28;20212;-59
2021/01/05 07:26:04;;;;;;;;;;;;;;;;;;5030250;28;19933;-59
2021/01/05 07:28:31;;;;;;;;;;;;;;;;;;5030199;28;19933;-59
2021/01/05 07:30:58;;;;;;;;;;;;;;;;;;5030148;28;19935;-60
2021/01/05 07:33:25;;;;;;;;;;;;;;;;;;5030978;28;19929;-57
2021/01/05 07:35:52;;;;;;;;;;;;;;;;;;5022877;28;20352;-63
2021/01/05 07:38:20;;;;;;;;;;;;;;;;;;5023626;28;19929;-61
2021/01/05 07:40:47;;;;;;;;;;;;;;;;;;5029407;28;20427;-58
2021/01/05 07:43:14;;;;;;;;;;;;;;;;;;5017438;28;19929;-60
2021/01/05 07:45:41;;;;;;;;;;;;;;;;;;5028919;28;20292;-62
2021/01/05 07:48:08;;;;;;;;;;;;;;;;;;5022837;28;19929;-60
2021/01/05 07:50:35;;;;;;;;;;;;;;;;;;5012290;28;21520;-59
2021/01/05 07:53:03;;;;;;;;;;;;;;;;;;5024320;28;19936;-58
2021/01/05 07:55:39;;;;;;;;;;;;;;;;;;5020069;28;20463;-57
2021/01/05 07:58:06;;;;;;;;;;;;;;;;;;5014064;28;19935;-58
2021/01/05 08:00:33;;;;;;;;;;;;;;;;;;5012717;28;19929;-60
2021/01/05 08:03:00;;;;;;;;;;;;;;;;;;5015615;28;19971;-58
2021/01/05 08:05:28;;;;;;;;;;;;;;;;;;5017076;28;19929;-59
2021/01/05 08:07:55;;;;;;;;;;;;;;;;;;5015880;28;19929;-57
2021/01/05 08:10:22;;;;;;;;;;;;;;;;;;5025726;28;20043;-60
2021/01/05 08:12:49;;;;;;;;;;;;;;;;;;5022198;28;19929;-57
2021/01/05 08:15:16;;;;;;;;;;;;;;;;;;5019356;28;19933;-60
2021/01/05 08:17:43;;;;;;;;;;;;;;;;;;5025740;28;20705;-59
2021/01/05 08:20:11;;;;;;;;;;;;;;;;;;5017656;28;19929;-61
2021/01/05 08:22:38;;;;;;;;;;;;;;;;;;5016036;28;19929;-59
2021/01/05 08:25:05;;;;;;;;;;;;;;;;;;5021565;28;20027;-58
2021/01/05 08:27:32;;;;;;;;;;;;;;;;;;5010791;28;19929;-59
2021/01/05 08:29:59;;;;;;;;;;;;;;;;;;5018494;28;19929;-59
2021/01/05 08:32:27;;;;;;;;;;;;;;;;;;5015985;28;19929;-61
2021/01/05 08:34:54;;;;;;;;;;;;;;;;;;5010259;28;19939;-58
2021/01/05 08:37:22;;;;;;;;;;;;;;;;;;5015588;28;19929;-60
2021/01/05 08:39:49;;;;;;;;;;;;;;;;;;5018600;28;20399;-58
2021/01/05 08:42:16;;;;;;;;;;;;;;;;;;5009340;28;20211;-63
2021/01/05 08:44:44;;;;;;;;;;;;;;;;;;5019088;28;19948;-59
2021/01/05 08:47:11;;;;;;;;;;;;;;;;;;5014850;28;19925;-63
2021/01/05 08:49:39;;;;;;;;;;;;;;;;;;5025552;28;19968;-58
2021/01/05 08:52:06;;;;;;;;;;;;;;;;;;5013493;28;20278;-60
2021/01/05 08:54:33;;;;;;;;;;;;;;;;;;5016794;28;19929;-59
2021/01/05 08:57:00;;;;;;;;;;;;;;;;;;5010368;28;20014;-59
2021/01/05 08:59:27;;;;;;;;;;;;;;;;;;5012186;28;19929;-59
2021/01/05 09:01:55;;;;;;;;;;;;;;;;;;5022905;28;19953;-59
2021/01/05 09:04:23;;;;;;;;;;;;;;;;;;5022025;28;20008;-58
2021/01/05 09:06:51;;;;;;;;;;;;;;;;;;5019763;28;19975;-59
2021/01/05 09:09:18;;;;;;;;;;;;;;;;;;5014115;28;20008;-59
2021/01/05 09:11:46;;;;;;;;;;;;;;;;;;5025648;28;19983;-63
2021/01/05 09:14:13;;;;;;;;;;;;;;;;;;5026477;28;20031;-60
2021/01/05 09:16:40;;;;;;;;;;;;;;;;;;5027621;28;20446;-59
2021/01/05 09:19:08;;;;;;;;;;;;;;;;;;5022767;28;19975;-58
2021/01/05 09:21:35;;;;;;;;;;;;;;;;;;5023818;28;20309;-59
2021/01/05 09:24:03;;;;;;;;;;;;;;;;;;5026253;28;19929;-60
2021/01/05 09:26:30;;;;;;;;;;;;;;;;;;5026400;28;20380;-58
2021/01/05 09:28:58;;;;;;;;;;;;;;;;;;5024317;28;20006;-60
2021/01/05 09:31:25;;;;;;;;;;;;;;;;;;5009878;28;19940;-59
2021/01/05 09:33:52;;;;;;;;;;;;;;;;;;5009563;28;19937;-62
2021/01/05 09:36:20;;;;;;;;;;;;;;;;;;5018219;28;19929;-60
2021/01/05 09:38:47;;;;;;;;;;;;;;;;;;5013036;28;19930;-62
2021/01/05 09:41:14;;;;;;;;;;;;;;;;;;5024779;28;19963;-61
2021/01/05 09:43:42;;;;;;;;;;;;;;;;;;5017956;28;20016;-59
2021/01/05 09:46:09;;;;;;;;;;;;;;;;;;5020867;28;19934;-61
2021/01/05 09:48:36;;;;;;;;;;;;;;;;;;5022306;28;19933;-59
2021/01/05 09:51:04;;;;;;;;;;;;;;;;;;5017317;28;19926;-59
2021/01/05 09:53:32;;;;;;;;;;;;;;;;;;5009805;28;19932;-60
2021/01/05 09:56:00;;;;;;;;;;;;;;;;;;5024976;28;19929;-60
2021/01/05 09:58:27;;;;;;;;;;;;;;;;;;5021448;28;20053;-57
2021/01/05 10:00:54;;;;;;;;;;;;;;;;;;5009679;28;20463;-58
2021/01/05 10:03:22;;;;;;;;;;;;;;;;;;5023461;28;19929;-59
2021/01/05 10:05:49;;;;;;;;;;;;;;;;;;5027132;28;19929;-60
2021/01/05 10:08:16;;;;;;;;;;;;;;;;;;5023324;28;20541;-61
2021/01/05 10:10:44;;;;;;;;;;;;;;;;;;5024159;28;20023;-61
2021/01/05 10:13:11;;;;;;;;;;;;;;;;;;5018767;28;19960;-58
2021/01/05 10:15:38;;;;;;;;;;;;;;;;;;5019755;28;19948;-59
2021/01/05 10:18:05;;;;;;;;;;;;;;;;;;5023755;28;20138;-56
2021/01/05 10:20:32;;;;;;;;;;;;;;;;;;5025057;28;19992;-58
2021/01/05 10:23:00;;;;;;;;;;;;;;;;;;5023790;28;19960;-59
2021/01/05 10:25:27;;;;;;;;;;;;;;;;;;5022935;28;19929;-58
2021/01/05 10:27:54;;;;;;;;;;;;;;;;;;5027201;28;20020;-59
2021/01/05 10:30:22;;;;;;;;;;;;;;;;;;5018861;28;19925;-60
2021/01/05 10:32:49;;;;;;;;;;;;;;;;;;5024477;28;20285;-60
2021/01/05 10:35:16;;;;;;;;;;;;;;;;;;5019292;28;19956;-61
2021/01/05 10:37:43;;;;;;;;;;;;;;;;;;5031773;28;19929;-58
2021/01/05 10:40:11;;;;;;;;;;;;;;;;;;5024392;28;19955;-59
2021/01/05 10:42:38;;;;;;;;;;;;;;;;;;5028982;28;19925;-58
2021/01/05 10:45:06;;;;;;;;;;;;;;;;;;5024816;28;20454;-59
2021/01/05 10:47:33;;;;;;;;;;;;;;;;;;5028415;28;19929;-59
2021/01/05 10:50:03;;;;;;;;;;;;;;;;;;5031277;28;19928;-58
2021/01/05 10:52:30;;;;;;;;;;;;;;;;;;5018325;28;19964;-59
2021/01/05 10:54:57;;;;;;;;;;;;;;;;;;5022368;28;19937;-59
2021/01/05 10:57:25;;;;;;;;;;;;;;;;;;5022636;28;19972;-59
2021/01/05 10:59:52;;;;;;;;;;;;;;;;;;5019978;28;20436;-60
2021/01/05 11:02:19;;;;;;;;;;;;;;;;;;5026500;28;19936;-58
2021/01/05 11:04:47;;;;;;;;;;;;;;;;;;5029456;28;19933;-62
2021/01/05 11:07:14;;;;;;;;;;;;;;;;;;5025440;28;19971;-61
2021/01/05 11:09:41;;;;;;;;;;;;;;;;;;5026310;28;19925;-59
2021/01/05 11:12:10;;;;;;;;;;;;;;;;;;5023322;28;20311;-62
2021/01/05 11:14:38;;;;;;;;;;;;;;;;;;5024835;28;20372;-58
2021/01/05 11:17:05;;;;;;;;;;;;;;;;;;5021211;28;19973;-60
2021/01/05 11:19:32;;;;;;;;;;;;;;;;;;5026528;28;19932;-58
2021/01/05 11:21:59;;;;;;;;;;;;;;;;;;5031803;28;20024;-60
2021/01/05 11:24:26;;;;;;;;;;;;;;;;;;5021303;28;19929;-59
2021/01/05 11:26:54;;;;;;;;;;;;;;;;;;5019617;28;19925;-58
2021/01/05 11:29:21;;;;;;;;;;;;;;;;;;5024456;28;19939;-58
2021/01/05 11:31:48;;;;;;;;;;;;;;;;;;5019338;28;20440;-61
2021/01/05 11:34:16;;;;;;;;;;;;;;;;;;5021436;28;19983;-60
2021/01/05 11:36:43;;;;;;;;;;;;;;;;;;5018455;28;19975;-58
2021/01/05 11:39:10;;;;;;;;;;;;;;;;;;5027520;28;20012;-60
2021/01/05 11:41:39;;;;;;;;;;;;;;;;;;5022629;28;19929;-58
2021/01/05 11:44:06;;;;;;;;;;;;;;;;;;5019041;28;19940;-60
2021/01/05 11:46:33;;;;;;;;;;;;;;;;;;5022437;28;19971;-59
2021/01/05 11:49:00;;;;;;;;;;;;;;;;;;5012540;28;20004;-58
2021/01/05 11:51:27;;;;;;;;;;;;;;;;;;5014482;28;19976;-60
2021/01/05 11:53:55;;;;;;;;;;;;;;;;;;5013052;28;19977;-59
2021/01/05 11:56:22;;;;;;;;;;;;;;;;;;5024653;28;19932;-59
2021/01/05 11:58:50;;;;;;;;;;;;;;;;;;5022377;28;20016;-59
2021/01/05 12:01:17;;;;;;;;;;;;;;;;;;5022916;28;19933;-60
2021/01/05 12:03:44;;;;;;;;;;;;;;;;;;5025903;28;19926;-59
2021/01/05 12:06:11;;;;;;;;;;;;;;;;;;5019828;28;20024;-58
2021/01/05 12:08:38;;;;;;;;;;;;;;;;;;5017197;28;20403;-59
2021/01/05 12:11:06;;;;;;;;;;;;;;;;;;5026092;28;20517;-59
2021/01/05 12:13:33;;;;;;;;;;;;;;;;;;5018287;28;19929;-60
2021/01/05 12:16:03;;;;;;;;;;;;;;;;;;5016444;28;19940;-59
2021/01/05 12:18:31;;;;;;;;;;;;;;;;;;5022271;28;20425;-60
2021/01/05 12:20:58;;;;;;;;;;;;;;;;;;5026558;28;19929;-59
2021/01/05 12:23:25;;;;;;;;;;;;;;;;;;5019993;28;19937;-57
2021/01/05 12:25:53;;;;;;;;;;;;;;;;;;5022560;28;20048;-60
2021/01/05 12:28:20;;;;;;;;;;;;;;;;;;5020071;28;19933;-59
2021/01/05 12:30:48;;;;;;;;;;;;;;;;;;5030250;28;19931;-59
2021/01/05 12:33:15;;;;;;;;;;;;;;;;;;5026290;28;19936;-59
2021/01/05 12:35:42;;;;;;;;;;;;;;;;;;5022063;28;19925;-56
2021/01/05 12:38:10;;;;;;;;;;;;;;;;;;5016254;28;20373;-57
2021/01/05 12:40:37;;;;;;;;;;;;;;;;;;5017002;28;19934;-58
2021/01/05 12:43:05;;;;;;;;;;;;;;;;;;5026266;28;20389;-59
2021/01/05 12:45:32;;;;;;;;;;;;;;;;;;5026355;28;19930;-59
2021/01/05 12:47:59;;;;;;;;;;;;;;;;;;5022860;28;20384;-57
2021/01/05 12:50:27;;;;;;;;;;;;;;;;;;5024204;28;20399;-61
2021/01/05 12:52:54;;;;;;;;;;;;;;;;;;5018266;28;20288;-60
2021/01/05 12:55:22;;;;;;;;;;;;;;;;;;5024006;28;19985;-58
2021/01/05 12:57:49;;;;;;;;;;;;;;;;;;5015881;28;19936;-59
2021/01/05 13:00:18;;;;;;;;;;;;;;;;;;5017729;28;19991;-62
2021/01/05 13:02:46;;;;;;;;;;;;;;;;;;5027816;28;19925;-58
2021/01/05 13:05:13;;;;;;;;;;;;;;;;;;5027868;28;19929;-61
2021/01/05 13:07:40;;;;;;;;;;;;;;;;;;5013033;28;19925;-58
2021/01/05 13:10:08;;;;;;;;;;;;;;;;;;5020847;28;20300;-59
2021/01/05 13:12:37;;;;;;;;;;;;;;;;;;5014733;28;20302;-58
2021/01/05 13:15:04;;;;;;;;;;;;;;;;;;5010985;28;19929;-58
2021/01/05 13:17:31;;;;;;;;;;;;;;;;;;5016786;28;20020;-62
2021/01/05 13:19:58;;;;;;;;;;;;;;;;;;5022638;28;19987;-64
2021/01/05 13:22:26;;;;;;;;;;;;;;;;;;5014420;28;20385;-64
2021/01/05 13:24:53;;;;;;;;;;;;;;;;;;5026250;28;19932;-64
2021/01/05 13:27:20;;;;;;;;;;;;;;;;;;5010539;28;20373;-65
2021/01/05 13:29:47;;;;;;;;;;;;;;;;;;5013355;28;20380;-66
2021/01/05 13:32:15;;;;;;;;;;;;;;;;;;5023852;28;19933;-63
2021/01/05 13:34:43;;;;;;;;;;;;;;;;;;5027706;28;19929;-65
2021/01/05 13:37:11;;;;;;;;;;;;;;;;;;5020723;28;20028;-66
2021/01/05 13:39:38;;;;;;;;;;;;;;;;;;5024088;28;19940;-60
2021/01/05 13:42:06;;;;;;;;;;;;;;;;;;5025224;28;19933;-63
2021/01/05 13:44:33;;;;;;;;;;;;;;;;;;5025841;28;19971;-61
2021/01/05 13:47:00;;;;;;;;;;;;;;;;;;5026394;28;21147;-61
2021/01/05 13:49:27;;;;;;;;;;;;;;;;;;5013355;28;19975;-61
2021/01/05 13:51:54;;;;;;;;;;;;;;;;;;5025659;28;20036;-61
2021/01/05 13:54:22;;;;;;;;;;;;;;;;;;5019170;28;19979;-61
2021/01/05 13:56:49;;;;;;;;;;;;;;;;;;5020315;28;19932;-61
2021/01/05 13:59:16;;;;;;;;;;;;;;;;;;5017076;28;19933;-61
2021/01/05 14:01:43;;;;;;;;;;;;;;;;;;5018514;28;20025;-61
2021/01/05 14:04:11;;;;;;;;;;;;;;;;;;5027657;28;20002;-60
2021/01/05 14:06:38;;;;;;;;;;;;;;;;;;5022650;28;19987;-60
2021/01/05 14:09:06;;;;;;;;;;;;;;;;;;5018928;28;20016;-61
2021/01/05 14:11:33;;;;;;;;;;;;;;;;;;5015686;28;19968;-61
2021/01/05 14:14:00;;;;;;;;;;;;;;;;;;5026150;28;19925;-61
2021/01/05 14:16:28;;;;;;;;;;;;;;;;;;5024996;28;19929;-60
2021/01/05 14:18:55;;;;;;;;;;;;;;;;;;5022347;28;20007;-61
2021/01/05 14:21:22;;;;;;;;;;;;;;;;;;5023543;28;19925;-61
2021/01/05 14:23:49;;;;;;;;;;;;;;;;;;5015480;28;19998;-62
2021/01/05 14:26:16;;;;;;;;;;;;;;;;;;5022958;28;19929;-62
2021/01/05 14:28:44;;;;;;;;;;;;;;;;;;5024379;28;20027;-62
2021/01/05 14:31:12;;;;;;;;;;;;;;;;;;5022753;28;19932;-62
2021/01/05 14:33:42;;;;;;;;;;;;;;;;;;5028270;28;19935;-61
2021/01/05 14:36:09;;;;;;;;;;;;;;;;;;5026551;28;20032;-61
2021/01/05 14:38:36;;;;;;;;;;;;;;;;;;5022311;28;20020;-60
2021/01/05 14:41:04;;;;;;;;;;;;;;;;;;5018963;28;20024;-61
2021/01/05 14:43:31;;;;;;;;;;;;;;;;;;5027311;28;20048;-62
2021/01/05 14:45:59;;;;;;;;;;;;;;;;;;5013869;28;19969;-60
2021/01/05 14:48:26;;;;;;;;;;;;;;;;;;5017028;28;19929;-60
2021/01/05 14:50:54;;;;;;;;;;;;;;;;;;5019723;28;20019;-61
2021/01/05 14:53:21;;;;;;;;;;;;;;;;;;5028227;28;19937;-61
2021/01/05 14:55:49;;;;;;;;;;;;;;;;;;5024012;28;20373;-60
2021/01/05 14:58:16;;;;;;;;;;;;;;;;;;5014406;28;19932;-61
2021/01/05 15:00:44;;;;;;;;;;;;;;;;;;5013690;28;19987;-62
2021/01/05 15:03:11;;;;;;;;;;;;;;;;;;5024636;28;19929;-60
2021/01/05 15:05:38;;;;;;;;;;;;;;;;;;5029578;28;19929;-60
2021/01/05 15:08:05;;;;;;;;;;;;;;;;;;5028066;28;19940;-61
2021/01/05 15:10:32;;;;;;;;;;;;;;;;;;5014699;28;20438;-61
2021/01/05 15:13:00;;;;;;;;;;;;;;;;;;5020703;28;19965;-60
2021/01/05 15:15:28;;;;;;;;;;;;;;;;;;5026611;28;20343;-61
2021/01/05 15:17:56;;;;;;;;;;;;;;;;;;5025930;28;19937;-60
2021/01/05 15:20:23;;;;;;;;;;;;;;;;;;5012977;28;19933;-61
2021/01/05 15:22:51;;;;;;;;;;;;;;;;;;5022799;28;19926;-62
2021/01/05 15:25:18;;;;;;;;;;;;;;;;;;5024895;28;20364;-61
2021/01/05 15:27:45;;;;;;;;;;;;;;;;;;5023517;28;19956;-61
2021/01/05 15:30:12;;;;;;;;;;;;;;;;;;5020657;28;19926;-61
2021/01/05 15:32:39;;;;;;;;;;;;;;;;;;5027494;28;19929;-60
2021/01/05 15:35:07;;;;;;;;;;;;;;;;;;5029185;28;19932;-60
2021/01/05 15:37:34;;;;;;;;;;;;;;;;;;5031469;28;20041;-61
2021/01/05 15:40:02;;;;;;;;;;;;;;;;;;5027695;28;19933;-62
2021/01/05 15:42:29;;;;;;;;;;;;;;;;;;5029502;28;19925;-61
2021/01/05 15:44:56;;;;;;;;;;;;;;;;;;5023466;28;20446;-63
2021/01/05 15:47:24;;;;;;;;;;;;;;;;;;5019257;28;19932;-60
2021/01/05 15:49:51;;;;;;;;;;;;;;;;;;5025604;28;19933;-62
2021/01/05 15:52:19;;;;;;;;;;;;;;;;;;5029051;28;19936;-61
2021/01/05 15:54:47;;;;;;;;;;;;;;;;;;5027607;28;19926;-60
2021/01/05 15:57:14;;;;;;;;;;;;;;;;;;5025977;28;19929;-60
2021/01/05 15:59:41;;;;;;;;;;;;;;;;;;5027627;28;19925;-60
2021/01/05 16:02:09;;;;;;;;;;;;;;;;;;5027279;28;19933;-62
2021/01/05 16:04:36;;;;;;;;;;;;;;;;;;5021556;28;19956;-60
2021/01/05 16:07:04;;;;;;;;;;;;;;;;;;5026183;28;19925;-61
2021/01/05 16:09:32;;;;;;;;;;;;;;;;;;5025594;28;20369;-61
2021/01/05 16:12:00;;;;;;;;;;;;;;;;;;5022042;28;20340;-61
2021/01/05 16:14:27;;;;;;;;;;;;;;;;;;5026246;28;20405;-61
2021/01/05 16:16:56;;;;;;;;;;;;;;;;;;5013925;28;19930;-61
2021/01/05 16:19:23;;;;;;;;;;;;;;;;;;5018182;28;19980;-62
2021/01/05 16:21:51;;;;;;;;;;;;;;;;;;5020635;28;20386;-62
2021/01/05 16:24:18;;;;;;;;;;;;;;;;;;5023521;28;19929;-61
2021/01/05 16:26:45;;;;;;;;;;;;;;;;;;5029630;28;19925;-61
2021/01/05 16:29:13;;;;;;;;;;;;;;;;;;5030032;28;19925;-60
2021/01/05 16:31:41;;;;;;;;;;;;;;;;;;5019284;28;20043;-60
2021/01/05 16:34:08;;;;;;;;;;;;;;;;;;5027045;28;19963;-62
2021/01/05 16:36:35;;;;;;;;;;;;;;;;;;5020584;28;19973;-60
2021/01/05 16:39:02;;;;;;;;;;;;;;;;;;5024259;28;20001;-60
2021/01/05 16:41:30;;;;;;;;;;;;;;;;;;5028938;28;20339;-61
2021/01/05 16:43:57;;;;;;;;;;;;;;;;;;5027876;28;20356;-62
2021/01/05 16:46:25;;;;;;;;;;;;;;;;;;5017298;28;20288;-61